Time;durP1;ratioP1;P1;durP2;ratioP2;P2;SDS_P1;SDS_P2;PMS_P1;PMS_P2;Temp;Humidity;BMP_temperature;BMP_pressure;BME280_temperature;BME280_humidity;BME280_pressure;Samples;Min_cycle;Max_cycle;Signal;HPM_P1;HPM_P2
2023/04/22 00:01:28;;;;;;;3.63;2.78;;;11.90;99.90;;;;;;4172277;28;20044;-65
2023/04/22 00:03:29;;;;;;;3.45;2.70;;;11.90;99.90;;;;;;4176789;28;20045;-65
2023/04/22 00:05:30;;;;;;;3.42;2.38;;;11.90;99.90;;;;;;4174184;28;21810;-64
2023/04/22 00:07:31;;;;;;;3.28;2.58;;;11.90;99.90;;;;;;4176532;28;20099;-65
2023/04/22 00:09:32;;;;;;;4.28;2.83;;;11.90;99.90;;;;;;4176530;28;20399;-65
2023/04/22 00:11:32;;;;;;;3.78;2.90;;;11.90;99.90;;;;;;4174275;28;20095;-65
2023/04/22 00:13:33;;;;;;;3.60;2.97;;;11.90;99.90;;;;;;4177106;28;20037;-65
2023/04/22 00:15:33;;;;;;;3.72;2.60;;;11.90;99.90;;;;;;4165372;28;20498;-65
2023/04/22 00:17:34;;;;;;;3.80;3.17;;;11.90;99.90;;;;;;4177428;28;20045;-64
2023/04/22 00:19:36;;;;;;;3.53;2.58;;;11.80;99.90;;;;;;4176356;28;20082;-64
2023/04/22 00:21:36;;;;;;;3.40;2.53;;;11.60;99.90;;;;;;4173318;28;20182;-64
2023/04/22 00:23:37;;;;;;;3.67;3.00;;;11.70;99.90;;;;;;4175582;28;20057;-66
2023/04/22 00:25:39;;;;;;;3.90;2.90;;;11.60;99.90;;;;;;4175442;28;20506;-65
2023/04/22 00:27:40;;;;;;;4.53;3.35;;;11.60;99.90;;;;;;4176807;28;20033;-64
2023/04/22 00:29:40;;;;;;;4.53;3.42;;;11.60;99.90;;;;;;4175844;28;20056;-65
2023/04/22 00:31:41;;;;;;;4.38;3.45;;;11.60;99.90;;;;;;4173082;28;20087;-65
2023/04/22 00:33:42;;;;;;;6.80;3.60;;;11.60;99.90;;;;;;4176882;28;20502;-64
2023/04/22 00:35:44;;;;;;;4.85;3.42;;;11.60;99.90;;;;;;4174098;28;20365;-65
2023/04/22 00:37:45;;;;;;;4.53;3.17;;;11.70;99.90;;;;;;4176646;28;20476;-64
2023/04/22 00:39:46;;;;;;;4.13;3.22;;;11.60;99.90;;;;;;4177333;28;20051;-64
2023/04/22 00:41:47;;;;;;;3.88;2.85;;;11.60;99.90;;;;;;4157062;28;20928;-64
2023/04/22 00:43:48;;;;;;;4.30;2.72;;;11.50;99.90;;;;;;4175807;28;20040;-64
2023/04/22 00:45:49;;;;;;;3.42;2.97;;;11.50;99.90;;;;;;4174276;28;20382;-64
2023/04/22 00:47:51;;;;;;;3.42;2.80;;;11.50;99.90;;;;;;4176722;28;20064;-65
2023/04/22 00:49:53;;;;;;;4.00;2.92;;;11.50;99.90;;;;;;4176877;28;20043;-64
2023/04/22 00:51:54;;;;;;;6.38;3.38;;;11.50;99.90;;;;;;4173922;28;20562;-65
2023/04/22 00:53:54;;;;;;;4.85;3.15;;;11.40;99.90;;;;;;4177192;28;20071;-65
2023/04/22 00:55:55;;;;;;;6.30;3.72;;;11.50;99.90;;;;;;4174265;28;20480;-65
2023/04/22 00:57:59;;;;;;;4.75;3.60;;;11.40;99.90;;;;;;4171780;28;20128;-65
2023/04/22 01:00:00;;;;;;;4.93;3.38;;;11.40;99.90;;;;;;4175696;28;20171;-65
2023/04/22 01:02:00;;;;;;;4.75;3.78;;;11.40;99.90;;;;;;4170950;28;20121;-65
2023/04/22 01:04:02;;;;;;;6.72;3.63;;;11.40;99.90;;;;;;4176496;28;20472;-64
2023/04/22 01:06:03;;;;;;;4.93;3.92;;;11.40;99.90;;;;;;4153495;28;20042;-65
2023/04/22 01:08:04;;;;;;;4.93;3.70;;;11.40;99.90;;;;;;4176441;28;20434;-65
2023/04/22 01:10:05;;;;;;;10.82;4.32;;;11.30;99.90;;;;;;4177116;28;20036;-65
2023/04/22 01:12:06;;;;;;;6.95;4.32;;;11.30;99.90;;;;;;4173511;28;20044;-65
2023/04/22 01:14:07;;;;;;;5.65;4.03;;;11.30;99.90;;;;;;4176571;28;20545;-65
2023/04/22 01:16:08;;;;;;;4.50;3.55;;;11.30;99.90;;;;;;4173066;28;20037;-65
2023/04/22 01:18:09;;;;;;;5.43;3.60;;;11.30;99.90;;;;;;4174540;28;20438;-65
2023/04/22 01:20:10;;;;;;;5.47;3.65;;;11.30;99.90;;;;;;4160598;28;20033;-65
2023/04/22 01:22:13;;;;;;;5.03;3.95;;;11.30;99.90;;;;;;4172625;28;20045;-65
2023/04/22 01:24:13;;;;;;;6.20;4.40;;;11.20;99.90;;;;;;4175766;28;20041;-64
2023/04/22 01:26:14;;;;;;;5.95;4.63;;;11.20;99.90;;;;;;4174765;28;20467;-64
2023/04/22 01:28:15;;;;;;;6.30;4.32;;;11.30;99.90;;;;;;4176014;28;20472;-65
2023/04/22 01:30:16;;;;;;;5.60;4.30;;;11.30;99.90;;;;;;4157531;28;20033;-65
2023/04/22 01:32:18;;;;;;;6.00;4.25;;;11.30;99.90;;;;;;4173595;28;20082;-65
2023/04/22 01:34:18;;;;;;;5.20;4.03;;;11.30;99.90;;;;;;4174939;28;20037;-65
2023/04/22 01:36:19;;;;;;;5.80;4.28;;;11.30;99.90;;;;;;4173281;28;20536;-65
2023/04/22 01:38:20;;;;;;;5.60;4.45;;;11.30;99.90;;;;;;4176630;28;20040;-65
2023/04/22 01:40:22;;;;;;;6.43;4.32;;;11.30;99.90;;;;;;4175196;28;20127;-65
2023/04/22 01:42:23;;;;;;;5.65;4.07;;;11.30;99.90;;;;;;4168927;28;20037;-64
2023/04/22 01:44:25;;;;;;;4.75;3.97;;;11.30;99.90;;;;;;4174926;28;20919;-65
2023/04/22 01:46:25;;;;;;;5.10;4.03;;;11.30;99.90;;;;;;4172876;28;20091;-65
2023/04/22 01:48:26;;;;;;;5.15;3.47;;;11.30;99.90;;;;;;4176341;28;21155;-65
2023/04/22 01:50:27;;;;;;;3.90;3.10;;;11.30;99.90;;;;;;4174790;28;20029;-65
2023/04/22 01:52:28;;;;;;;5.45;3.90;;;11.30;99.90;;;;;;4173228;28;20037;-65
2023/04/22 01:54:28;;;;;;;5.32;4.10;;;11.20;99.90;;;;;;4176271;28;20068;-66
2023/04/22 01:56:29;;;;;;;8.82;5.22;;;11.10;99.90;;;;;;4172897;28;20122;-66
2023/04/22 01:58:32;;;;;;;6.00;4.55;;;11.10;99.90;;;;;;4172883;28;20387;-66
2023/04/22 02:00:32;;;;;;;;;;;11.00;99.90;;;;;;4173548;28;20025;-65
2023/04/22 02:02:33;;;;;;;5.45;4.35;;;11.00;99.90;;;;;;4168908;28;19939;-65
2023/04/22 02:04:34;;;;;;;5.85;4.50;;;11.10;99.90;;;;;;4175392;28;20094;-65
2023/04/22 02:06:35;;;;;;;8.50;5.35;;;11.10;99.90;;;;;;4173049;28;20099;-65
2023/04/22 02:08:35;;;;;;;6.07;4.97;;;11.10;99.90;;;;;;4175320;28;20041;-65
2023/04/22 02:10:36;;;;;;;7.18;5.32;;;11.10;99.90;;;;;;4174716;28;20036;-65
2023/04/22 02:12:36;;;;;;;8.80;6.15;;;11.10;99.90;;;;;;4174493;28;20037;-64
2023/04/22 02:14:37;;;;;;;7.47;5.70;;;11.10;99.90;;;;;;4173768;28;20155;-65
2023/04/22 02:16:40;;;;;;;10.77;6.22;;;11.20;99.90;;;;;;4172501;28;20035;-65
2023/04/22 02:18:40;;;;;;;;;;;11.20;99.90;;;;;;4176015;28;20457;-65
2023/04/22 02:20:41;;;;;;;11.77;7.68;;;11.30;99.90;;;;;;4174990;28;19959;-74
2023/04/22 02:22:42;;;;;;;11.23;7.60;;;11.30;99.90;;;;;;4173558;28;20398;-73
2023/04/22 02:24:43;;;;;;;12.15;8.43;;;11.30;99.90;;;;;;4175080;28;20041;-74
2023/04/22 02:26:44;;;;;;;10.48;7.80;;;11.30;99.90;;;;;;4172934;28;20131;-74
2023/04/22 02:28:45;;;;;;;11.65;7.85;;;11.30;99.90;;;;;;4171349;28;20049;-73
2023/04/22 02:30:46;;;;;;;11.07;8.13;;;11.30;99.90;;;;;;4172514;28;20470;-74
2023/04/22 02:32:46;;;;;;;12.05;8.05;;;11.30;99.90;;;;;;4174894;28;20068;-75
2023/04/22 02:34:47;;;;;;;9.80;7.50;;;11.30;99.90;;;;;;4157381;28;20046;-75
2023/04/22 02:36:47;;;;;;;9.32;7.25;;;11.40;99.90;;;;;;4172905;28;20041;-75
2023/04/22 02:38:48;;;;;;;8.70;6.00;;;11.40;99.90;;;;;;4175552;28;20455;-75
2023/04/22 02:40:49;;;;;;;7.47;5.68;;;11.40;99.90;;;;;;4174580;28;20541;-75
2023/04/22 02:42:50;;;;;;;10.32;6.75;;;11.40;99.90;;;;;;4174958;28;20128;-75
2023/04/22 02:44:50;;;;;;;7.85;5.82;;;11.50;99.90;;;;;;4173146;28;20045;-75
2023/04/22 02:46:51;;;;;;;8.30;6.15;;;11.40;99.90;;;;;;4171609;28;20037;-75
2023/04/22 02:48:51;;;;;;;10.15;6.38;;;11.40;99.90;;;;;;4167670;28;20045;-75
2023/04/22 02:50:52;;;;;;;8.38;6.03;;;11.50;99.90;;;;;;4170055;28;20045;-75
2023/04/22 02:52:53;;;;;;;8.93;6.70;;;11.50;99.90;;;;;;4165596;28;20037;-75
2023/04/22 02:54:53;;;;;;;8.52;6.35;;;11.40;99.90;;;;;;4170706;28;20025;-75
2023/04/22 02:56:54;;;;;;;8.27;6.03;;;11.50;99.90;;;;;;4166714;28;20033;-74
2023/04/22 02:58:54;;;;;;;8.63;6.20;;;11.40;99.90;;;;;;4171783;28;20120;-74
2023/04/22 03:00:58;;;;;;;9.30;6.95;;;11.50;99.90;;;;;;4171830;28;20125;-74
2023/04/22 03:02:58;;;;;;;9.07;6.25;;;11.50;99.90;;;;;;4173111;28;20072;-75
2023/04/22 03:04:59;;;;;;;10.05;7.45;;;11.40;99.90;;;;;;4175064;28;20029;-75
2023/04/22 03:07:00;;;;;;;9.68;6.57;;;11.40;99.90;;;;;;4169686;28;20036;-70
2023/04/22 03:09:00;;;;;;;8.95;6.57;;;11.40;99.90;;;;;;4175323;28;20040;-74
2023/04/22 03:11:01;;;;;;;9.50;6.47;;;11.40;99.90;;;;;;4170588;28;20159;-74
2023/04/22 03:13:02;;;;;;;9.75;7.28;;;11.40;99.90;;;;;;4167426;28;20037;-74
2023/04/22 03:15:02;;;;;;;8.52;6.47;;;11.40;99.90;;;;;;4170823;28;20033;-75
2023/04/22 03:17:03;;;;;;;8.82;6.90;;;11.40;99.90;;;;;;4150807;28;20461;-74
2023/04/22 03:19:03;;;;;;;9.60;7.05;;;11.40;99.90;;;;;;4173318;28;20101;-75
2023/04/22 03:21:05;;;;;;;9.35;6.28;;;11.40;99.90;;;;;;4172249;28;20033;-75
2023/04/22 03:23:06;;;;;;;9.95;6.88;;;11.40;99.90;;;;;;4170086;28;20033;-74
2023/04/22 03:25:09;;;;;;;11.15;7.40;;;11.40;99.90;;;;;;4169543;28;20106;-75
2023/04/22 03:27:10;;;;;;;9.57;6.40;;;11.40;99.90;;;;;;4172191;28;20064;-75
2023/04/22 03:29:10;;;;;;;10.45;6.45;;;11.40;99.90;;;;;;4168533;28;20398;-75
2023/04/22 03:31:11;;;;;;;9.48;6.15;;;11.40;99.90;;;;;;4170225;28;20029;-74
2023/04/22 03:33:11;;;;;;;9.30;6.40;;;11.40;99.90;;;;;;4171178;28;20428;-74
2023/04/22 03:35:12;;;;;;;8.57;6.00;;;11.40;99.90;;;;;;4173610;28;20044;-74
2023/04/22 03:37:12;;;;;;;9.15;6.50;;;11.40;99.90;;;;;;4172351;28;20049;-74
2023/04/22 03:39:13;;;;;;;8.38;6.35;;;11.50;99.90;;;;;;4174666;28;20450;-74
2023/04/22 03:41:14;;;;;;;9.70;6.40;;;11.50;99.90;;;;;;4172450;28;20061;-73
2023/04/22 03:43:14;;;;;;;8.85;6.57;;;11.50;99.90;;;;;;4171511;28;20136;-74
2023/04/22 03:45:15;;;;;;;8.93;6.00;;;11.50;99.90;;;;;;4173219;28;20037;-74
2023/04/22 03:47:15;;;;;;;8.15;6.03;;;11.50;99.90;;;;;;4174193;28;20029;-74
2023/04/22 03:49:16;;;;;;;10.35;6.30;;;11.50;99.90;;;;;;4174444;28;20423;-74
2023/04/22 03:51:16;;;;;;;7.43;5.40;;;11.50;99.90;;;;;;4172360;28;20040;-74
2023/04/22 03:53:17;;;;;;;7.53;5.43;;;11.50;99.90;;;;;;4155901;28;20037;-74
2023/04/22 03:55:18;;;;;;;8.98;5.90;;;11.50;99.90;;;;;;4173371;28;20124;-73
2023/04/22 03:57:18;;;;;;;9.32;6.32;;;11.50;99.90;;;;;;4173351;28;20490;-72
2023/04/22 03:59:19;;;;;;;8.50;5.60;;;11.50;99.90;;;;;;4172721;28;20472;-73
2023/04/22 04:01:20;;;;;;;8.15;5.82;;;11.50;99.90;;;;;;4165290;28;20044;-73
2023/04/22 04:03:20;;;;;;;8.77;5.70;;;11.50;99.90;;;;;;4156326;28;20038;-75
2023/04/22 04:05:21;;;;;;;7.65;5.95;;;11.50;99.90;;;;;;4149246;28;20095;-73
2023/04/22 04:07:21;;;;;;;8.48;5.18;;;11.50;99.90;;;;;;4170581;28;20102;-74
2023/04/22 04:09:22;;;;;;;9.65;5.80;;;11.50;99.90;;;;;;4176343;28;20037;-74
2023/04/22 04:11:23;;;;;;;7.22;4.85;;;11.50;99.90;;;;;;4170801;28;20172;-74
2023/04/22 04:13:23;;;;;;;8.20;5.18;;;11.40;99.90;;;;;;4175888;28;20037;-73
2023/04/22 04:15:24;;;;;;;10.27;5.55;;;11.50;99.90;;;;;;4170567;28;20033;-74
2023/04/22 04:17:25;;;;;;;8.15;4.72;;;11.50;99.90;;;;;;4172871;28;20471;-74
2023/04/22 04:19:25;;;;;;;6.25;4.45;;;11.50;99.90;;;;;;4154930;28;20096;-74
2023/04/22 04:21:26;;;;;;;6.63;4.53;;;11.50;99.90;;;;;;4170575;28;20048;-74
2023/04/22 04:23:26;;;;;;;5.45;4.35;;;11.50;99.90;;;;;;4173053;28;20130;-74
2023/04/22 04:25:29;;;;;;;6.45;4.57;;;11.50;99.90;;;;;;4173656;28;20394;-74
2023/04/22 04:27:30;;;;;;;5.45;4.25;;;11.60;99.90;;;;;;4172617;28;20069;-74
2023/04/22 04:29:30;;;;;;;7.45;4.40;;;11.60;99.90;;;;;;4171634;28;20036;-74
2023/04/22 04:31:31;;;;;;;7.28;4.45;;;11.60;99.90;;;;;;4173158;28;20060;-73
2023/04/22 04:33:32;;;;;;;5.25;4.30;;;11.60;99.90;;;;;;4170461;28;20477;-74
2023/04/22 04:35:34;;;;;;;5.90;3.88;;;11.60;99.90;;;;;;4168009;28;20037;-74
2023/04/22 04:37:35;;;;;;;5.87;4.00;;;11.60;99.90;;;;;;4152006;28;20034;-74
2023/04/22 04:39:36;;;;;;;6.10;3.97;;;11.70;99.90;;;;;;4173145;28;20049;-74
2023/04/22 04:41:37;;;;;;;4.40;3.42;;;11.70;99.90;;;;;;4167677;28;20033;-75
2023/04/22 04:43:39;;;;;;;5.85;4.30;;;11.70;99.90;;;;;;4171462;28;20049;-74
2023/04/22 04:45:45;;;;;;;5.93;4.30;;;11.80;99.90;;;;;;4152671;28;20412;-74
2023/04/22 04:47:45;;;;;;;5.40;4.10;;;11.80;99.90;;;;;;4173276;28;20754;-75
2023/04/22 04:49:46;;;;;;;7.13;4.00;;;11.80;99.90;;;;;;4170886;28;20037;-74
2023/04/22 04:51:47;;;;;;;5.93;4.40;;;11.80;99.90;;;;;;4173723;28;20045;-74
2023/04/22 04:53:47;;;;;;;5.15;3.85;;;11.80;99.90;;;;;;4176367;28;20037;-74
2023/04/22 04:55:48;;;;;;;5.30;3.85;;;11.80;99.90;;;;;;4162312;28;20041;-74
2023/04/22 04:57:48;;;;;;;6.00;3.97;;;11.90;99.90;;;;;;4175926;28;20045;-74
2023/04/22 04:59:49;;;;;;;5.00;3.95;;;11.90;99.90;;;;;;4175220;28;20060;-74
2023/04/22 05:01:50;;;;;;;6.00;3.95;;;11.90;99.90;;;;;;4172624;28;20476;-74
2023/04/22 05:03:50;;;;;;;4.90;3.63;;;11.90;99.90;;;;;;4177272;28;20059;-74
2023/04/22 05:05:51;;;;;;;5.25;3.60;;;11.90;99.90;;;;;;4176269;28;20045;-74
2023/04/22 05:07:52;;;;;;;5.30;3.78;;;11.90;99.90;;;;;;4174547;28;20041;-75
2023/04/22 05:09:53;;;;;;;5.03;3.80;;;11.90;99.90;;;;;;4158917;28;20143;-74
2023/04/22 05:11:54;;;;;;;6.05;3.70;;;11.90;99.90;;;;;;4174459;28;20033;-75
2023/04/22 05:13:55;;;;;;;5.80;4.15;;;11.90;99.90;;;;;;4173870;28;20387;-74
2023/04/22 05:15:56;;;;;;;5.13;3.85;;;11.90;99.90;;;;;;4171116;28;20036;-75
2023/04/22 05:17:56;;;;;;;5.20;3.67;;;11.90;99.90;;;;;;4175705;28;20470;-75
2023/04/22 05:19:57;;;;;;;4.90;3.65;;;11.90;99.90;;;;;;4170983;28;20052;-75
2023/04/22 05:21:57;;;;;;;5.75;4.15;;;11.90;99.90;;;;;;4170839;28;20045;-74
2023/04/22 05:23:58;;;;;;;6.88;4.30;;;11.90;99.90;;;;;;4148631;28;20057;-75
2023/04/22 05:25:59;;;;;;;6.63;4.20;;;11.90;99.90;;;;;;4174205;28;20155;-75
2023/04/22 05:27:59;;;;;;;5.43;3.72;;;11.90;99.90;;;;;;4172385;28;20037;-74
2023/04/22 05:30:00;;;;;;;5.93;4.10;;;11.90;99.90;;;;;;4174856;28;20033;-75
2023/04/22 05:32:00;;;;;;;6.80;4.45;;;11.90;99.90;;;;;;4167575;28;20029;-75
2023/04/22 05:34:01;;;;;;;5.88;4.13;;;12.00;99.90;;;;;;4175745;28;20072;-72
2023/04/22 05:36:02;;;;;;;6.00;4.15;;;12.00;99.90;;;;;;4173640;28;20036;-72
2023/04/22 05:38:02;;;;;;;6.22;4.15;;;11.90;99.90;;;;;;4174316;28;20116;-74
2023/04/22 05:40:03;;;;;;;5.05;3.72;;;12.00;99.90;;;;;;4174852;28;20033;-75
2023/04/22 05:42:04;;;;;;;4.95;3.47;;;11.90;99.90;;;;;;4172911;28;20029;-75
2023/04/22 05:44:04;;;;;;;3.47;3.00;;;12.00;99.90;;;;;;4175755;28;20037;-75
2023/04/22 05:46:05;;;;;;;3.83;3.10;;;12.00;99.90;;;;;;4171306;28;20468;-75
2023/04/22 05:48:06;;;;;;;4.55;3.30;;;12.00;99.90;;;;;;4174456;28;20476;-75
2023/04/22 05:50:07;;;;;;;5.43;2.90;;;12.00;99.90;;;;;;4175794;28;20041;-75
2023/04/22 05:52:08;;;;;;;4.18;3.05;;;12.10;99.90;;;;;;4174493;28;20112;-76
2023/04/22 05:54:08;;;;;;;4.95;3.10;;;12.10;99.90;;;;;;4173380;28;20464;-76
2023/04/22 05:56:09;;;;;;;4.22;3.15;;;12.10;99.90;;;;;;4174369;28;20041;-76
2023/04/22 05:58:09;;;;;;;4.40;3.42;;;12.10;99.90;;;;;;4172954;28;20025;-76
2023/04/22 06:00:11;;;;;;;3.55;2.85;;;12.10;99.90;;;;;;4173563;28;20039;-76
2023/04/22 06:02:11;;;;;;;3.33;2.65;;;12.10;99.90;;;;;;4169311;28;20041;-76
2023/04/22 06:04:12;;;;;;;4.15;2.60;;;12.10;99.90;;;;;;4175623;28;20066;-76
2023/04/22 06:06:12;;;;;;;4.45;2.75;;;12.10;99.90;;;;;;4172754;28;20029;-76
2023/04/22 06:08:13;;;;;;;4.25;2.88;;;12.10;99.90;;;;;;4174220;28;20495;-75
2023/04/22 06:10:14;;;;;;;4.45;3.05;;;12.10;99.90;;;;;;4171581;28;20066;-75
2023/04/22 06:12:14;;;;;;;3.42;2.63;;;12.10;99.90;;;;;;4168659;28;20052;-75
2023/04/22 06:14:15;;;;;;;3.10;2.80;;;12.20;99.90;;;;;;4170159;28;20044;-75
2023/04/22 06:16:15;;;;;;;3.67;2.95;;;12.20;99.90;;;;;;4172027;28;20029;-75
2023/04/22 06:18:16;;;;;;;6.47;3.40;;;12.20;99.90;;;;;;4174435;28;20056;-74
2023/04/22 06:20:17;;;;;;;4.63;3.17;;;12.20;99.90;;;;;;4174596;28;20049;-75
2023/04/22 06:22:17;;;;;;;3.88;3.00;;;12.40;99.90;;;;;;4170878;28;20037;-74
2023/04/22 06:24:18;;;;;;;3.13;2.67;;;12.30;99.90;;;;;;4175102;28;20044;-75
2023/04/22 06:26:19;;;;;;;5.25;2.88;;;12.40;99.90;;;;;;4171192;28;20403;-75
2023/04/22 06:28:19;;;;;;;3.30;2.67;;;12.50;99.90;;;;;;4173567;28;20037;-75
2023/04/22 06:30:20;;;;;;;4.07;2.95;;;12.50;99.90;;;;;;4171513;28;20037;-75
2023/04/22 06:32:21;;;;;;;6.03;3.13;;;12.60;99.90;;;;;;4171692;28;20040;-75
2023/04/22 06:34:22;;;;;;;4.38;3.00;;;12.60;99.90;;;;;;4174216;28;20030;-74
2023/04/22 06:36:23;;;;;;;3.42;2.80;;;12.70;99.90;;;;;;4155974;28;20052;-75
2023/04/22 06:38:24;;;;;;;3.42;2.33;;;12.70;99.90;;;;;;4174227;28;21304;-75
2023/04/22 06:40:24;;;;;;;4.40;3.60;;;12.90;99.90;;;;;;4167584;28;20036;-75
2023/04/22 06:42:25;;;;;;;5.95;2.95;;;13.00;99.90;;;;;;4172379;28;20036;-75
2023/04/22 06:44:26;;;;;;;3.88;2.90;;;13.30;99.90;;;;;;4174698;28;20033;-75
2023/04/22 06:46:26;;;;;;;3.30;2.58;;;13.60;99.90;;;;;;4167308;28;20065;-75
2023/04/22 06:48:27;;;;;;;3.45;2.38;;;13.90;99.90;;;;;;4172776;28;20045;-75
2023/04/22 06:50:27;;;;;;;5.40;3.20;;;14.30;99.90;;;;;;4171350;28;20033;-75
2023/04/22 06:52:28;;;;;;;3.58;2.67;;;14.70;99.90;;;;;;4170872;28;20034;-75
2023/04/22 06:54:29;;;;;;;4.57;2.70;;;15.00;99.90;;;;;;4175981;28;20518;-75
2023/04/22 06:56:29;;;;;;;2.38;2.17;;;15.30;99.90;;;;;;4154212;28;20072;-75
2023/04/22 06:58:30;;;;;;;6.30;3.17;;;15.60;99.90;;;;;;4169048;28;20034;-74
2023/04/22 07:00:31;;;;;;;8.40;2.78;;;15.90;99.90;;;;;;4172336;28;20044;-74
2023/04/22 07:02:31;;;;;;;4.05;2.65;;;16.20;99.90;;;;;;4175179;28;20136;-74
2023/04/22 07:04:32;;;;;;;4.00;2.45;;;16.40;99.90;;;;;;4170187;28;20045;-74
2023/04/22 07:06:32;;;;;;;3.15;2.45;;;16.70;99.90;;;;;;4167750;28;20040;-73
2023/04/22 07:08:33;;;;;;;4.18;2.60;;;16.90;99.90;;;;;;4168301;28;20045;-72
2023/04/22 07:10:33;;;;;;;4.32;2.50;;;17.10;99.90;;;;;;4167576;28;20472;-73
2023/04/22 07:12:34;;;;;;;3.40;2.20;;;17.40;99.90;;;;;;4168499;28;20087;-74
2023/04/22 07:14:35;;;;;;;3.35;2.15;;;17.50;99.90;;;;;;4169971;28;20037;-73
2023/04/22 07:16:37;;;;;;;6.68;2.38;;;17.70;99.90;;;;;;4171052;28;20463;-74
2023/04/22 07:18:38;;;;;;;4.10;2.50;;;17.80;99.90;;;;;;4170706;28;20045;-71
2023/04/22 07:20:39;;;;;;;2.30;2.08;;;17.80;99.90;;;;;;4172325;28;20280;-72
2023/04/22 07:22:39;;;;;;;2.70;2.20;;;17.80;99.90;;;;;;4168838;28;20559;-74
2023/04/22 07:24:40;;;;;;;4.53;2.75;;;17.80;99.90;;;;;;4170892;28;20052;-73
2023/04/22 07:26:42;;;;;;;4.82;2.70;;;17.80;99.90;;;;;;4173062;28;20064;-74
2023/04/22 07:28:43;;;;;;;5.78;2.60;;;17.90;99.90;;;;;;4173501;28;20048;-73
2023/04/22 07:30:44;;;;;;;3.72;2.28;;;17.80;99.90;;;;;;4172703;28;20045;-74
2023/04/22 07:32:45;;;;;;;4.07;2.38;;;17.80;99.90;;;;;;4174442;28;20502;-74
2023/04/22 07:34:45;;;;;;;3.50;2.30;;;17.80;99.90;;;;;;4175175;28;20033;-74
2023/04/22 07:36:46;;;;;;;2.67;2.03;;;17.80;99.90;;;;;;4173573;28;20040;-75
2023/04/22 07:38:47;;;;;;;3.88;2.53;;;17.90;99.90;;;;;;4157092;28;20038;-74
2023/04/22 07:40:47;;;;;;;4.10;2.55;;;17.90;99.90;;;;;;4169852;28;20052;-74
2023/04/22 07:42:48;;;;;;;3.75;2.60;;;17.90;99.90;;;;;;4174729;28;20056;-74
2023/04/22 07:44:49;;;;;;;4.03;2.20;;;17.80;99.90;;;;;;4178860;28;20459;-75
2023/04/22 07:46:50;;;;;;;4.43;2.70;;;17.80;99.90;;;;;;4175927;28;20029;-74
2023/04/22 07:48:50;;;;;;;3.28;2.17;;;17.80;99.90;;;;;;4175111;28;20045;-75
2023/04/22 07:50:51;;;;;;;4.13;2.08;;;17.80;99.90;;;;;;4175213;28;20542;-75
2023/04/22 07:52:51;;;;;;;3.25;2.00;;;17.90;99.90;;;;;;4175326;28;20099;-74
2023/04/22 07:54:52;;;;;;;3.55;1.95;;;17.90;99.90;;;;;;4174344;28;20564;-74
2023/04/22 07:56:53;;;;;;;4.60;2.33;;;17.90;99.90;;;;;;4170900;28;20026;-74
2023/04/22 07:58:53;;;;;;;4.82;2.35;;;17.90;99.90;;;;;;4172205;28;20044;-75
2023/04/22 08:00:54;;;;;;;3.85;2.45;;;17.80;99.90;;;;;;4174089;28;20389;-74
2023/04/22 08:02:54;;;;;;;2.42;2.03;;;17.90;99.90;;;;;;4175889;28;20490;-75
2023/04/22 08:04:55;;;;;;;2.80;2.20;;;18.00;99.90;;;;;;4172713;28;20038;-74
2023/04/22 08:06:56;;;;;;;3.63;2.53;;;18.00;99.90;;;;;;4171413;28;20048;-75
2023/04/22 08:08:56;;;;;;;3.08;2.00;;;18.10;99.90;;;;;;4173399;28;20029;-75
2023/04/22 08:10:57;;;;;;;3.83;2.47;;;18.20;99.90;;;;;;4170775;28;20033;-75
2023/04/22 08:12:57;;;;;;;3.90;2.40;;;18.30;99.90;;;;;;4172933;28;20033;-74
2023/04/22 08:14:58;;;;;;;2.67;2.10;;;18.30;99.90;;;;;;4170568;28;20057;-75
2023/04/22 08:16:59;;;;;;;2.67;2.08;;;18.30;99.90;;;;;;4175237;28;20112;-75
2023/04/22 08:18:59;;;;;;;3.17;2.28;;;18.30;99.90;;;;;;4172212;28;20032;-74
2023/04/22 08:21:01;;;;;;;3.05;2.33;;;18.40;99.90;;;;;;4175056;28;20043;-75
2023/04/22 08:23:01;;;;;;;3.63;2.45;;;18.50;99.90;;;;;;4177287;28;20060;-75
2023/04/22 08:25:02;;;;;;;2.33;1.75;;;18.50;99.90;;;;;;4178809;28;20057;-75
2023/04/22 08:27:02;;;;;;;3.25;2.30;;;18.60;99.90;;;;;;4167926;28;20453;-76
2023/04/22 08:29:03;;;;;;;3.42;2.35;;;18.60;99.90;;;;;;4175354;28;20435;-72
2023/04/22 08:31:05;;;;;;;4.15;2.30;;;18.60;99.90;;;;;;4170900;28;20428;-73
2023/04/22 08:33:05;;;;;;;3.10;1.88;;;18.70;99.90;;;;;;4176086;28;20041;-74
2023/04/22 08:35:06;;;;;;;3.03;2.00;;;18.70;99.90;;;;;;4162930;28;20072;-75
2023/04/22 08:37:07;;;;;;;3.63;2.33;;;18.80;99.90;;;;;;4177510;28;20041;-75
2023/04/22 08:39:08;;;;;;;2.85;1.85;;;18.70;99.90;;;;;;4175062;28;20040;-74
2023/04/22 08:41:09;;;;;;;3.42;1.80;;;18.70;99.90;;;;;;4174266;28;20091;-73
2023/04/22 08:43:11;;;;;;;1.75;1.60;;;18.50;99.90;;;;;;4172837;28;20045;-69
2023/04/22 08:45:12;;;;;;;2.20;1.77;;;18.50;99.90;;;;;;4169017;28;20037;-70
2023/04/22 08:47:14;;;;;;;2.42;1.70;;;18.50;99.90;;;;;;4175041;28;20040;-70
2023/04/22 08:49:16;;;;;;;1.80;1.60;;;18.50;99.90;;;;;;4154764;28;20406;-69
2023/04/22 08:51:17;;;;;;;3.15;2.20;;;18.50;99.90;;;;;;4168304;28;20053;-67
2023/04/22 08:53:19;;;;;;;2.85;2.10;;;18.50;99.90;;;;;;4170825;28;20052;-68
2023/04/22 08:55:20;;;;;;;2.08;1.73;;;18.60;99.90;;;;;;4170271;28;20087;-70
2023/04/22 08:57:21;;;;;;;2.55;1.50;;;18.60;99.90;;;;;;4170445;28;20045;-68
2023/04/22 08:59:22;;;;;;;3.50;1.80;;;18.60;99.90;;;;;;4167185;28;20041;-68
2023/04/22 09:01:24;;;;;;;2.83;1.73;;;18.70;99.90;;;;;;4157666;28;20125;-68
2023/04/22 09:03:26;;;;;;;3.17;2.10;;;18.70;99.90;;;;;;4153969;28;20166;-68
2023/04/22 09:05:39;;;;;;;4.40;1.90;;;18.70;99.90;;;;;;4175398;28;20037;-68
2023/04/22 09:07:41;;;;;;;3.10;1.90;;;18.80;99.90;;;;;;4175154;28;20118;-69
2023/04/22 09:09:43;;;;;;;3.20;2.13;;;18.80;99.90;;;;;;4172633;28;20098;-69
2023/04/22 09:11:44;;;;;;;;;;;18.90;99.90;;;;;;4160475;28;20038;-69
2023/04/22 09:13:46;;;;;;;3.33;1.90;;;18.90;99.90;;;;;;4159900;28;19909;-68
2023/04/22 09:15:47;;;;;;;5.10;2.00;;;18.90;99.90;;;;;;4173228;28;20593;-69
2023/04/22 09:17:50;;;;;;;2.60;2.10;;;19.00;99.90;;;;;;4178288;28;20075;-68
2023/04/22 09:20:01;;;;;;;3.08;2.13;;;19.00;99.90;;;;;;4175479;28;20063;-69
2023/04/22 09:22:02;;;;;;;4.07;2.22;;;19.10;99.90;;;;;;4173201;28;20063;-69
2023/04/22 09:24:05;;;;;;;4.50;2.30;;;19.20;99.90;;;;;;4171956;28;20049;-69
2023/04/22 09:26:07;;;;;;;3.60;2.05;;;19.20;99.90;;;;;;4170494;28;20037;-69
2023/04/22 09:28:11;;;;;;;3.33;2.20;;;19.30;99.90;;;;;;4172125;28;20033;-69
2023/04/22 09:30:13;;;;;;;2.17;1.73;;;19.30;99.90;;;;;;4168945;28;20029;-70
2023/04/22 09:32:14;;;;;;;5.22;2.22;;;19.30;99.90;;;;;;4159217;28;20033;-69
2023/04/22 09:34:15;;;;;;;4.47;2.22;;;19.40;99.90;;;;;;4158124;28;20046;-69
2023/04/22 09:36:15;;;;;;;4.68;2.28;;;19.40;99.90;;;;;;4168048;28;20037;-68
2023/04/22 09:38:16;;;;;;;3.13;2.20;;;19.50;99.90;;;;;;4170400;28;20487;-69
2023/04/22 09:40:18;;;;;;;3.22;2.40;;;19.50;99.90;;;;;;4174888;28;20546;-69
2023/04/22 09:42:20;;;;;;;2.10;1.75;;;19.60;99.90;;;;;;4165847;28;20029;-69
2023/04/22 09:44:21;;;;;;;2.73;2.00;;;19.60;99.90;;;;;;4176106;28;20499;-69
2023/04/22 09:46:23;;;;;;;2.80;1.88;;;19.70;99.90;;;;;;4174231;28;20321;-68
2023/04/22 09:48:24;;;;;;;3.45;2.10;;;19.70;99.90;;;;;;4177245;28;20116;-68
2023/04/22 09:50:26;;;;;;;2.88;2.05;;;19.80;99.90;;;;;;4171850;28;20033;-69
2023/04/22 09:52:26;;;;;;;6.95;2.33;;;19.80;99.90;;;;;;4174970;28;20468;-69
2023/04/22 09:54:27;;;;;;;3.25;2.13;;;19.70;99.90;;;;;;4176289;28;20033;-69
2023/04/22 09:56:47;;;;;;;4.97;2.38;;;19.80;99.90;;;;;;4170221;28;20090;-68
2023/04/22 09:58:52;;;;;;;6.63;2.70;;;19.80;99.90;;;;;;4171992;28;20108;-68
2023/04/22 10:00:55;;;;;;;5.32;2.65;;;19.80;99.90;;;;;;4174091;28;20033;-68
2023/04/22 10:02:56;;;;;;;7.07;2.42;;;19.90;99.90;;;;;;4176239;28;20044;-69
2023/04/22 10:04:57;;;;;;;3.88;2.30;;;19.90;99.90;;;;;;4176467;28;20128;-68
2023/04/22 10:06:58;;;;;;;3.70;2.03;;;19.90;99.90;;;;;;4175412;28;20025;-69
2023/04/22 10:09:00;;;;;;;4.07;1.90;;;20.00;99.90;;;;;;4159119;28;20037;-69
2023/04/22 10:11:01;;;;;;;3.30;2.38;;;20.00;99.90;;;;;;4175670;28;20033;-68
2023/04/22 10:13:03;;;;;;;3.13;2.17;;;20.10;99.90;;;;;;4175183;28;20064;-69
2023/04/22 10:15:07;;;;;;;4.63;2.37;;;20.10;99.90;;;;;;4168560;28;20468;-68
2023/04/22 10:17:09;;;;;;;5.13;1.92;;;20.10;99.90;;;;;;4169972;28;20033;-69
2023/04/22 10:19:15;;;;;;;3.33;1.90;;;20.20;99.90;;;;;;4176767;28;20047;-68
2023/04/22 10:21:17;;;;;;;2.60;1.88;;;20.30;99.90;;;;;;4174161;28;20036;-68
2023/04/22 10:23:21;;;;;;;2.83;1.67;;;20.30;99.90;;;;;;4173997;28;20041;-68
2023/04/22 10:25:25;;;;;;;4.35;2.00;;;20.40;99.90;;;;;;4173693;28;20036;-68
2023/04/22 10:27:26;;;;;;;2.35;1.77;;;20.50;99.90;;;;;;4171901;28;20037;-68
2023/04/22 10:29:41;;;;;;;3.63;1.90;;;20.50;99.90;;;;;;4158892;28;20463;-69
2023/04/22 10:31:51;;;;;;;3.33;2.15;;;20.60;99.90;;;;;;4168678;28;20034;-68